sensor_id;sensor_type;location;lat;lon;timestamp;pressure;altitude;pressure_sealevel;temperature;humidity
75409;BME280;63979;55.644;37.734;2024-03-23T00:56:10;99255.84;;;3.59;67.64
75409;BME280;63979;55.644;37.734;2024-03-23T01:01:11;99262.91;;;3.75;66.71
75409;BME280;63979;55.644;37.734;2024-03-23T01:06:12;99264.63;;;3.76;67.08
75409;BME280;63979;55.644;37.734;2024-03-23T01:11:13;99258.56;;;3.57;67.45
75409;BME280;63979;55.644;37.734;2024-03-23T01:16:14;99245.16;;;3.62;67.48
75409;BME280;63979;55.644;37.734;2024-03-23T01:21:14;99231.72;;;3.66;67.65
75409;BME280;63979;55.644;37.734;2024-03-23T01:26:15;99229.47;;;3.76;67.48
75409;BME280;63979;55.644;37.734;2024-03-23T01:31:16;99218.97;;;3.74;67.88
75409;BME280;63979;55.644;37.734;2024-03-23T01:36:17;99207.34;;;3.79;67.98
75409;BME280;63979;55.644;37.734;2024-03-23T01:41:18;99208.59;;;3.71;68.02
75409;BME280;63979;55.644;37.734;2024-03-23T01:46:19;99206.19;;;3.67;68.56
75409;BME280;63979;55.644;37.734;2024-03-23T01:51:21;99191.28;;;3.83;68.63
75409;BME280;63979;55.644;37.734;2024-03-23T01:56:21;99195.00;;;3.79;68.58
75409;BME280;63979;55.644;37.734;2024-03-23T02:01:22;99182.56;;;3.81;68.41
75409;BME280;63979;55.644;37.734;2024-03-23T02:06:26;99170.38;;;3.79;69.01
75409;BME280;63979;55.644;37.734;2024-03-23T02:11:28;99164.34;;;3.59;70.32
75409;BME280;63979;55.644;37.734;2024-03-23T02:16:28;99154.88;;;3.55;70.41
75409;BME280;63979;55.644;37.734;2024-03-23T02:21:29;99145.50;;;3.50;70.97
75409;BME280;63979;55.644;37.734;2024-03-23T02:26:32;99130.50;;;3.33;71.49
75409;BME280;63979;55.644;37.734;2024-03-23T02:31:33;99136.41;;;3.38;72.18
75409;BME280;63979;55.644;37.734;2024-03-23T02:36:34;99092.88;;;3.12;72.19
75409;BME280;63979;55.644;37.734;2024-03-23T02:41:35;99123.63;;;3.48;72.06
75409;BME280;63979;55.644;37.734;2024-03-23T02:46:36;99111.91;;;3.36;72.22
75409;BME280;63979;55.644;37.734;2024-03-23T02:51:37;99104.75;;;3.38;72.85
75409;BME280;63979;55.644;37.734;2024-03-23T02:56:37;99094.16;;;3.22;72.46
75409;BME280;63979;55.644;37.734;2024-03-23T03:01:38;99095.69;;;3.26;72.85
75409;BME280;63979;55.644;37.734;2024-03-23T03:06:39;99045.72;;;3.06;73.05
75409;BME280;63979;55.644;37.734;2024-03-23T03:11:41;99085.16;;;3.26;72.99
75409;BME280;63979;55.644;37.734;2024-03-23T03:16:42;99068.28;;;3.46;72.39
75409;BME280;63979;55.644;37.734;2024-03-23T03:21:43;99060.69;;;3.40;73.16
75409;BME280;63979;55.644;37.734;2024-03-23T03:26:44;99051.59;;;3.45;72.71
75409;BME280;63979;55.644;37.734;2024-03-23T03:31:45;99042.06;;;3.43;73.27
75409;BME280;63979;55.644;37.734;2024-03-23T03:36:46;99032.56;;;3.23;73.75
75409;BME280;63979;55.644;37.734;2024-03-23T03:41:47;99035.16;;;3.58;72.81
75409;BME280;63979;55.644;37.734;2024-03-23T03:46:48;99019.22;;;3.59;72.30
75409;BME280;63979;55.644;37.734;2024-03-23T03:51:48;99022.13;;;3.55;71.92
75409;BME280;63979;55.644;37.734;2024-03-23T03:56:49;99014.97;;;3.57;72.56
75409;BME280;63979;55.644;37.734;2024-03-23T04:01:50;99002.66;;;3.40;73.34
75409;BME280;63979;55.644;37.734;2024-03-23T04:07:01;98947.28;;;3.40;73.34
75409;BME280;63979;55.644;37.734;2024-03-23T04:12:02;98986.38;;;3.65;73.71
75409;BME280;63979;55.644;37.734;2024-03-23T04:17:03;98978.31;;;3.68;73.72
75409;BME280;63979;55.644;37.734;2024-03-23T04:22:04;98977.41;;;3.85;73.72
75409;BME280;63979;55.644;37.734;2024-03-23T04:27:05;98968.47;;;3.87;73.10
75409;BME280;63979;55.644;37.734;2024-03-23T04:32:25;98955.19;;;3.89;73.50
75409;BME280;63979;55.644;37.734;2024-03-23T04:37:26;98937.84;;;4.30;72.76
75409;BME280;63979;55.644;37.734;2024-03-23T04:42:27;98892.09;;;3.84;73.71
75409;BME280;63979;55.644;37.734;2024-03-23T04:47:28;98929.44;;;4.24;73.28
75409;BME280;63979;55.644;37.734;2024-03-23T04:52:29;98935.59;;;4.54;72.14
75409;BME280;63979;55.644;37.734;2024-03-23T04:57:30;98928.25;;;4.44;72.53
75409;BME280;63979;55.644;37.734;2024-03-23T05:02:31;98915.09;;;4.28;73.31
75409;BME280;63979;55.644;37.734;2024-03-23T05:07:32;98912.19;;;4.62;73.22
75409;BME280;63979;55.644;37.734;2024-03-23T05:12:33;98897.13;;;4.79;72.17
75409;BME280;63979;55.644;37.734;2024-03-23T05:17:34;98885.78;;;4.77;72.41
75409;BME280;63979;55.644;37.734;2024-03-23T05:22:38;98906.91;;;4.62;73.63
75409;BME280;63979;55.644;37.734;2024-03-23T05:27:39;98906.19;;;4.75;73.22
75409;BME280;63979;55.644;37.734;2024-03-23T05:32:40;98869.53;;;4.83;73.61
75409;BME280;63979;55.644;37.734;2024-03-23T05:37:42;98878.22;;;4.70;74.13
75409;BME280;63979;55.644;37.734;2024-03-23T05:42:43;98876.00;;;5.07;73.75
75409;BME280;63979;55.644;37.734;2024-03-23T05:47:44;98869.16;;;4.60;74.93
75409;BME280;63979;55.644;37.734;2024-03-23T05:52:45;98848.50;;;4.81;74.35
75409;BME280;63979;55.644;37.734;2024-03-23T05:57:46;98837.63;;;4.72;74.12
75409;BME280;63979;55.644;37.734;2024-03-23T06:02:47;98836.53;;;4.46;76.33
75409;BME280;63979;55.644;37.734;2024-03-23T06:07:48;98865.97;;;4.84;75.88
75409;BME280;63979;55.644;37.734;2024-03-23T06:12:50;98853.53;;;5.00;75.58
75409;BME280;63979;55.644;37.734;2024-03-23T06:17:52;98840.84;;;4.77;75.28
75409;BME280;63979;55.644;37.734;2024-03-23T06:22:53;98840.31;;;5.00;75.08
75409;BME280;63979;55.644;37.734;2024-03-23T06:27:54;98843.88;;;5.13;75.07
75409;BME280;63979;55.644;37.734;2024-03-23T06:32:55;98790.88;;;4.44;76.95
75409;BME280;63979;55.644;37.734;2024-03-23T06:37:56;98838.03;;;4.94;76.27
75409;BME280;63979;55.644;37.734;2024-03-23T06:42:58;98823.28;;;5.04;75.84
75409;BME280;63979;55.644;37.734;2024-03-23T06:47:59;98826.59;;;5.08;75.84
75409;BME280;63979;55.644;37.734;2024-03-23T06:53:00;98826.69;;;5.06;76.16
75409;BME280;63979;55.644;37.734;2024-03-23T06:58:02;98774.97;;;4.88;76.00
75409;BME280;63979;55.644;37.734;2024-03-23T07:03:03;98804.16;;;4.86;76.49
75409;BME280;63979;55.644;37.734;2024-03-23T07:08:05;98758.13;;;5.03;75.85
75409;BME280;63979;55.644;37.734;2024-03-23T07:13:06;98761.13;;;5.11;74.72
75409;BME280;63979;55.644;37.734;2024-03-23T07:18:06;98771.81;;;5.10;74.88
75409;BME280;63979;55.644;37.734;2024-03-23T07:23:07;98776.81;;;5.14;75.95
75409;BME280;63979;55.644;37.734;2024-03-23T07:28:08;98773.41;;;5.12;75.69
75409;BME280;63979;55.644;37.734;2024-03-23T07:33:10;98733.53;;;5.15;75.02
75409;BME280;63979;55.644;37.734;2024-03-23T07:38:11;98761.06;;;5.40;75.29
75409;BME280;63979;55.644;37.734;2024-03-23T07:43:12;98773.25;;;5.42;75.13
75409;BME280;63979;55.644;37.734;2024-03-23T07:48:13;98761.28;;;5.37;75.11
75409;BME280;63979;55.644;37.734;2024-03-23T07:53:14;98759.97;;;5.29;75.73
75409;BME280;63979;55.644;37.734;2024-03-23T07:58:15;98757.47;;;5.41;76.18
75409;BME280;63979;55.644;37.734;2024-03-23T08:03:16;98750.38;;;5.41;76.83
75409;BME280;63979;55.644;37.734;2024-03-23T08:08:16;98762.66;;;5.42;76.69
75409;BME280;63979;55.644;37.734;2024-03-23T08:13:18;98760.47;;;5.49;75.79
75409;BME280;63979;55.644;37.734;2024-03-23T08:18:18;98704.50;;;5.28;76.74
75409;BME280;63979;55.644;37.734;2024-03-23T08:23:19;98740.66;;;5.81;75.72
75409;BME280;63979;55.644;37.734;2024-03-23T08:28:20;98705.44;;;5.54;76.50
75409;BME280;63979;55.644;37.734;2024-03-23T08:33:22;98730.50;;;5.75;75.78
75409;BME280;63979;55.644;37.734;2024-03-23T08:38:27;98735.75;;;5.89;77.16
75409;BME280;63979;55.644;37.734;2024-03-23T08:43:28;98709.31;;;5.88;76.80
75409;BME280;63979;55.644;37.734;2024-03-23T08:48:34;98715.84;;;5.57;76.97
75409;BME280;63979;55.644;37.734;2024-03-23T08:53:36;98679.16;;;5.51;76.41
75409;BME280;63979;55.644;37.734;2024-03-23T08:58:37;98712.69;;;6.04;75.75
75409;BME280;63979;55.644;37.734;2024-03-23T09:03:42;98697.22;;;6.11;75.09
75409;BME280;63979;55.644;37.734;2024-03-23T09:08:42;98671.41;;;5.87;74.65
75409;BME280;63979;55.644;37.734;2024-03-23T09:13:43;98706.13;;;5.70;76.70
75409;BME280;63979;55.644;37.734;2024-03-23T09:18:44;98694.78;;;5.95;75.71
75409;BME280;63979;55.644;37.734;2024-03-23T09:23:45;98677.28;;;6.18;75.44
75409;BME280;63979;55.644;37.734;2024-03-23T09:28:48;98660.47;;;6.32;74.54
75409;BME280;63979;55.644;37.734;2024-03-23T09:33:49;98680.47;;;6.23;74.57
75409;BME280;63979;55.644;37.734;2024-03-23T09:38:50;98667.53;;;6.44;74.36
75409;BME280;63979;55.644;37.734;2024-03-23T09:43:54;98661.81;;;6.37;74.26
75409;BME280;63979;55.644;37.734;2024-03-23T09:48:56;98666.38;;;6.35;74.11
75409;BME280;63979;55.644;37.734;2024-03-23T09:53:57;98659.38;;;6.21;74.94
75409;BME280;63979;55.644;37.734;2024-03-23T09:59:02;98669.03;;;6.35;74.74
75409;BME280;63979;55.644;37.734;2024-03-23T10:04:04;98642.72;;;6.45;75.09
75409;BME280;63979;55.644;37.734;2024-03-23T10:09:16;98629.94;;;6.26;74.46
75409;BME280;63979;55.644;37.734;2024-03-23T10:14:30;98632.88;;;6.34;75.03
75409;BME280;63979;55.644;37.734;2024-03-23T10:19:31;98646.22;;;6.45;74.60
75409;BME280;63979;55.644;37.734;2024-03-23T10:24:32;98628.59;;;6.57;74.36
75409;BME280;63979;55.644;37.734;2024-03-23T10:29:33;98635.84;;;6.42;74.97
75409;BME280;63979;55.644;37.734;2024-03-23T10:34:35;98592.28;;;6.21;75.33
75409;BME280;63979;55.644;37.734;2024-03-23T10:39:40;98619.28;;;6.51;75.29
75409;BME280;63979;55.644;37.734;2024-03-23T10:44:42;98622.38;;;6.45;75.25
75409;BME280;63979;55.644;37.734;2024-03-23T10:49:42;98635.06;;;6.66;74.86
75409;BME280;63979;55.644;37.734;2024-03-23T10:54:45;98627.09;;;6.66;74.94
75409;BME280;63979;55.644;37.734;2024-03-23T10:59:48;98621.81;;;6.53;75.13
75409;BME280;63979;55.644;37.734;2024-03-23T11:04:50;98613.97;;;6.64;75.41
75409;BME280;63979;55.644;37.734;2024-03-23T11:09:51;98617.13;;;6.69;74.73
75409;BME280;63979;55.644;37.734;2024-03-23T11:20:07;98619.03;;;6.67;75.70
75409;BME280;63979;55.644;37.734;2024-03-23T11:25:20;98612.88;;;6.67;75.34
75409;BME280;63979;55.644;37.734;2024-03-23T11:35:29;98600.56;;;7.02;74.24
75409;BME280;63979;55.644;37.734;2024-03-23T11:40:30;98579.44;;;6.40;76.03
75409;BME280;63979;55.644;37.734;2024-03-23T11:45:51;98591.91;;;6.64;75.74
75409;BME280;63979;55.644;37.734;2024-03-23T11:50:57;98602.94;;;6.57;76.47
75409;BME280;63979;55.644;37.734;2024-03-23T11:55:59;98579.28;;;6.54;76.51
75409;BME280;63979;55.644;37.734;2024-03-23T12:01:02;98593.63;;;6.52;76.70
75409;BME280;63979;55.644;37.734;2024-03-23T12:06:04;98581.72;;;6.57;76.74
75409;BME280;63979;55.644;37.734;2024-03-23T12:11:14;98597.25;;;6.38;78.07
75409;BME280;63979;55.644;37.734;2024-03-23T12:16:20;98587.09;;;6.32;78.52
75409;BME280;63979;55.644;37.734;2024-03-23T12:21:21;98583.22;;;6.49;77.76
75409;BME280;63979;55.644;37.734;2024-03-23T12:26:23;98594.78;;;6.61;77.13
75409;BME280;63979;55.644;37.734;2024-03-23T12:31:24;98583.00;;;6.65;77.56
75409;BME280;63979;55.644;37.734;2024-03-23T12:36:25;98575.78;;;6.54;77.97
75409;BME280;63979;55.644;37.734;2024-03-23T12:41:26;98585.38;;;6.44;77.76
75409;BME280;63979;55.644;37.734;2024-03-23T12:46:27;98585.25;;;6.45;78.82
75409;BME280;63979;55.644;37.734;2024-03-23T12:51:28;98591.97;;;6.38;79.57
75409;BME280;63979;55.644;37.734;2024-03-23T12:56:29;98589.31;;;6.38;79.14
75409;BME280;63979;55.644;37.734;2024-03-23T13:01:30;98579.59;;;6.26;79.61
75409;BME280;63979;55.644;37.734;2024-03-23T13:06:31;98578.19;;;6.33;79.61
75409;BME280;63979;55.644;37.734;2024-03-23T13:11:35;98588.69;;;6.22;80.34
75409;BME280;63979;55.644;37.734;2024-03-23T13:16:36;98576.72;;;6.29;80.66
75409;BME280;63979;55.644;37.734;2024-03-23T13:21:37;98573.28;;;6.40;80.73
75409;BME280;63979;55.644;37.734;2024-03-23T13:26:38;98562.66;;;6.52;80.17
75409;BME280;63979;55.644;37.734;2024-03-23T13:31:38;98566.47;;;6.12;81.42
75409;BME280;63979;55.644;37.734;2024-03-23T13:36:40;98529.25;;;6.13;80.69
75409;BME280;63979;55.644;37.734;2024-03-23T13:41:42;98568.59;;;6.07;81.74
75409;BME280;63979;55.644;37.734;2024-03-23T13:46:43;98552.31;;;6.37;80.78
75409;BME280;63979;55.644;37.734;2024-03-23T13:51:46;98556.94;;;6.46;79.77
75409;BME280;63979;55.644;37.734;2024-03-23T13:56:49;98555.19;;;6.21;80.67
75409;BME280;63979;55.644;37.734;2024-03-23T14:01:50;98554.56;;;6.30;81.10
75409;BME280;63979;55.644;37.734;2024-03-23T14:06:52;98551.69;;;6.33;80.28
75409;BME280;63979;55.644;37.734;2024-03-23T14:11:53;98556.78;;;6.36;80.65
75409;BME280;63979;55.644;37.734;2024-03-23T14:16:53;98549.84;;;6.46;80.24
75409;BME280;63979;55.644;37.734;2024-03-23T14:21:54;98544.16;;;6.40;80.24
75409;BME280;63979;55.644;37.734;2024-03-23T14:26:55;98549.09;;;6.44;80.22
75409;BME280;63979;55.644;37.734;2024-03-23T14:31:56;98557.63;;;6.37;80.42
75409;BME280;63979;55.644;37.734;2024-03-23T14:36:57;98539.41;;;6.56;79.69
75409;BME280;63979;55.644;37.734;2024-03-23T14:41:58;98550.13;;;6.54;79.44
75409;BME280;63979;55.644;37.734;2024-03-23T14:46:58;98554.47;;;6.32;80.79
75409;BME280;63979;55.644;37.734;2024-03-23T14:52:00;98552.31;;;6.24;81.81
75409;BME280;63979;55.644;37.734;2024-03-23T14:57:00;98508.56;;;6.31;80.53
75409;BME280;63979;55.644;37.734;2024-03-23T15:02:01;98546.13;;;6.49;80.22
75409;BME280;63979;55.644;37.734;2024-03-23T15:07:03;98559.16;;;6.52;80.29
75409;BME280;63979;55.644;37.734;2024-03-23T15:12:04;98544.69;;;6.32;80.76
75409;BME280;63979;55.644;37.734;2024-03-23T15:17:05;98550.00;;;6.56;80.20
75409;BME280;63979;55.644;37.734;2024-03-23T15:22:08;98550.31;;;6.64;79.73
75409;BME280;63979;55.644;37.734;2024-03-23T15:27:10;98557.75;;;6.59;79.88
75409;BME280;63979;55.644;37.734;2024-03-23T15:32:11;98552.09;;;6.40;81.22
75409;BME280;63979;55.644;37.734;2024-03-23T15:37:12;98558.19;;;6.16;82.60
75409;BME280;63979;55.644;37.734;2024-03-23T15:42:13;98559.88;;;6.54;81.11
75409;BME280;63979;55.644;37.734;2024-03-23T15:47:14;98561.19;;;6.48;80.94
75409;BME280;63979;55.644;37.734;2024-03-23T15:52:15;98571.38;;;6.42;81.20
75409;BME280;63979;55.644;37.734;2024-03-23T15:57:16;98570.81;;;6.49;81.08
75409;BME280;63979;55.644;37.734;2024-03-23T16:02:17;98576.63;;;6.54;80.87
75409;BME280;63979;55.644;37.734;2024-03-23T16:07:17;98560.97;;;6.51;80.72
75409;BME280;63979;55.644;37.734;2024-03-23T16:12:18;98580.69;;;6.60;80.70
75409;BME280;63979;55.644;37.734;2024-03-23T16:17:19;98590.63;;;6.56;80.68
75409;BME280;63979;55.644;37.734;2024-03-23T16:22:20;98594.97;;;6.57;80.74
75409;BME280;63979;55.644;37.734;2024-03-23T16:27:22;98585.69;;;6.39;81.60
75409;BME280;63979;55.644;37.734;2024-03-23T16:32:23;98599.97;;;6.62;80.94
75409;BME280;63979;55.644;37.734;2024-03-23T16:37:25;98611.72;;;6.58;81.18
75409;BME280;63979;55.644;37.734;2024-03-23T16:42:26;98599.97;;;6.49;80.93
75409;BME280;63979;55.644;37.734;2024-03-23T16:47:27;98626.47;;;6.62;81.03
75409;BME280;63979;55.644;37.734;2024-03-23T16:52:28;98611.81;;;6.69;80.44
75409;BME280;63979;55.644;37.734;2024-03-23T16:57:29;98613.91;;;6.77;80.07
75409;BME280;63979;55.644;37.734;2024-03-23T17:02:31;98600.81;;;6.63;80.96
75409;BME280;63979;55.644;37.734;2024-03-23T17:07:33;98616.84;;;6.61;81.16
75409;BME280;63979;55.644;37.734;2024-03-23T17:12:34;98616.97;;;6.47;81.40
75409;BME280;63979;55.644;37.734;2024-03-23T17:17:36;98612.72;;;6.44;81.07
75409;BME280;63979;55.644;37.734;2024-03-23T17:22:37;98619.63;;;6.34;81.60
75409;BME280;63979;55.644;37.734;2024-03-23T17:27:38;98626.31;;;6.40;81.86
75409;BME280;63979;55.644;37.734;2024-03-23T17:32:39;98617.66;;;6.25;82.20
75409;BME280;63979;55.644;37.734;2024-03-23T17:37:41;98628.25;;;6.25;82.06
75409;BME280;63979;55.644;37.734;2024-03-23T17:42:43;98629.41;;;6.08;82.33
75409;BME280;63979;55.644;37.734;2024-03-23T17:47:43;98610.88;;;5.96;82.21
75409;BME280;63979;55.644;37.734;2024-03-23T17:52:45;98653.78;;;6.01;82.57
75409;BME280;63979;55.644;37.734;2024-03-23T17:57:46;98642.66;;;5.96;82.58
75409;BME280;63979;55.644;37.734;2024-03-23T18:02:49;98632.84;;;5.71;82.89
75409;BME280;63979;55.644;37.734;2024-03-23T18:07:50;98676.16;;;5.82;83.53
75409;BME280;63979;55.644;37.734;2024-03-23T18:12:50;98673.53;;;5.82;83.39
75409;BME280;63979;55.644;37.734;2024-03-23T18:17:52;98683.16;;;5.83;83.15
75409;BME280;63979;55.644;37.734;2024-03-23T18:22:52;98687.91;;;5.78;83.18
75409;BME280;63979;55.644;37.734;2024-03-23T18:27:53;98691.00;;;5.72;83.60
75409;BME280;63979;55.644;37.734;2024-03-23T18:32:54;98693.84;;;5.69;83.59
75409;BME280;63979;55.644;37.734;2024-03-23T18:37:55;98683.03;;;5.59;83.94
75409;BME280;63979;55.644;37.734;2024-03-23T18:42:56;98686.63;;;5.58;83.66
75409;BME280;63979;55.644;37.734;2024-03-23T18:47:57;98700.13;;;5.54;84.02
75409;BME280;63979;55.644;37.734;2024-03-23T18:52:58;98696.66;;;5.53;84.46
75409;BME280;63979;55.644;37.734;2024-03-23T18:57:58;98706.38;;;5.53;83.76
75409;BME280;63979;55.644;37.734;2024-03-23T19:03:00;98693.03;;;5.54;84.28
75409;BME280;63979;55.644;37.734;2024-03-23T19:08:01;98706.69;;;5.48;83.63
75409;BME280;63979;55.644;37.734;2024-03-23T19:13:02;98715.97;;;5.41;84.42
75409;BME280;63979;55.644;37.734;2024-03-23T19:18:03;98714.28;;;5.40;84.26
75409;BME280;63979;55.644;37.734;2024-03-23T19:23:27;98721.59;;;5.37;84.27
75409;BME280;63979;55.644;37.734;2024-03-23T19:28:29;98730.38;;;5.37;84.34
75409;BME280;63979;55.644;37.734;2024-03-23T19:33:32;98742.34;;;5.43;84.30
75409;BME280;63979;55.644;37.734;2024-03-23T19:38:34;98710.66;;;5.28;84.11
75409;BME280;63979;55.644;37.734;2024-03-23T19:43:35;98744.75;;;5.33;83.91
75409;BME280;63979;55.644;37.734;2024-03-23T19:48:36;98766.75;;;5.33;84.37
75409;BME280;63979;55.644;37.734;2024-03-23T19:53:37;98767.84;;;5.03;85.64
75409;BME280;63979;55.644;37.734;2024-03-23T19:58:38;98760.94;;;5.14;85.55
75409;BME280;63979;55.644;37.734;2024-03-23T20:03:39;98763.03;;;5.09;85.78
75409;BME280;63979;55.644;37.734;2024-03-23T20:08:40;98773.41;;;5.12;85.90
75409;BME280;63979;55.644;37.734;2024-03-23T20:13:41;98767.56;;;5.07;85.50
75409;BME280;63979;55.644;37.734;2024-03-23T20:18:42;98763.81;;;4.97;85.89
75409;BME280;63979;55.644;37.734;2024-03-23T20:23:43;98760.56;;;5.06;85.52
75409;BME280;63979;55.644;37.734;2024-03-23T20:28:44;98733.50;;;4.88;85.14
75409;BME280;63979;55.644;37.734;2024-03-23T20:33:45;98757.75;;;4.95;86.02
75409;BME280;63979;55.644;37.734;2024-03-23T20:38:48;98761.63;;;5.04;85.86
75409;BME280;63979;55.644;37.734;2024-03-23T20:43:49;98771.00;;;4.95;86.10
75409;BME280;63979;55.644;37.734;2024-03-23T20:48:50;98774.75;;;5.05;85.98
75409;BME280;63979;55.644;37.734;2024-03-23T20:53:51;98775.09;;;5.13;85.61
75409;BME280;63979;55.644;37.734;2024-03-23T20:58:52;98783.59;;;5.18;85.88
75409;BME280;63979;55.644;37.734;2024-03-23T21:03:53;98780.75;;;5.36;85.44
75409;BME280;63979;55.644;37.734;2024-03-23T21:08:56;98774.91;;;5.30;85.21
75409;BME280;63979;55.644;37.734;2024-03-23T21:13:57;98776.69;;;5.30;85.19
75409;BME280;63979;55.644;37.734;2024-03-23T21:18:58;98779.53;;;5.54;84.41
75409;BME280;63979;55.644;37.734;2024-03-23T21:23:59;98778.34;;;5.72;83.82
75409;BME280;63979;55.644;37.734;2024-03-23T21:29:00;98781.66;;;5.76;83.25
75409;BME280;63979;55.644;37.734;2024-03-23T21:34:00;98788.94;;;5.72;83.56
75409;BME280;63979;55.644;37.734;2024-03-23T21:39:02;98792.22;;;5.49;83.74
75409;BME280;63979;55.644;37.734;2024-03-23T21:44:05;98809.06;;;5.75;83.61
75409;BME280;63979;55.644;37.734;2024-03-23T21:49:06;98826.91;;;5.85;82.63
75409;BME280;63979;55.644;37.734;2024-03-23T21:54:07;98814.81;;;5.96;81.97
75409;BME280;63979;55.644;37.734;2024-03-23T21:59:08;98812.63;;;6.15;81.03
75409;BME280;63979;55.644;37.734;2024-03-23T22:04:10;98808.59;;;6.09;80.67
75409;BME280;63979;55.644;37.734;2024-03-23T22:09:11;98795.88;;;6.14;80.31
75409;BME280;63979;55.644;37.734;2024-03-23T22:14:12;98793.34;;;6.13;80.05
75409;BME280;63979;55.644;37.734;2024-03-23T22:19:13;98794.69;;;6.06;80.20
75409;BME280;63979;55.644;37.734;2024-03-23T22:24:14;98790.75;;;5.99;80.80
75409;BME280;63979;55.644;37.734;2024-03-23T22:29:15;98801.38;;;5.84;81.59
75409;BME280;63979;55.644;37.734;2024-03-23T22:34:16;98812.91;;;5.83;81.26
75409;BME280;63979;55.644;37.734;2024-03-23T22:39:17;98804.22;;;5.96;81.44
75409;BME280;63979;55.644;37.734;2024-03-23T22:44:18;98817.84;;;5.89;81.02
75409;BME280;63979;55.644;37.734;2024-03-23T22:49:19;98812.25;;;5.94;80.70
75409;BME280;63979;55.644;37.734;2024-03-23T22:54:20;98826.91;;;5.85;80.96
75409;BME280;63979;55.644;37.734;2024-03-23T22:59:21;98809.88;;;5.89;81.04
75409;BME280;63979;55.644;37.734;2024-03-23T23:04:23;98795.78;;;5.89;80.94
75409;BME280;63979;55.644;37.734;2024-03-23T23:09:23;98814.91;;;5.94;80.38
75409;BME280;63979;55.644;37.734;2024-03-23T23:14:24;98806.34;;;5.89;80.76
75409;BME280;63979;55.644;37.734;2024-03-23T23:19:26;98826.66;;;5.90;80.90
75409;BME280;63979;55.644;37.734;2024-03-23T23:24:26;98816.19;;;6.01;80.46
75409;BME280;63979;55.644;37.734;2024-03-23T23:29:27;98815.00;;;5.78;80.99
75409;BME280;63979;55.644;37.734;2024-03-23T23:34:28;98811.63;;;5.90;81.24
75409;BME280;63979;55.644;37.734;2024-03-23T23:39:29;98822.75;;;5.81;81.68
75409;BME280;63979;55.644;37.734;2024-03-23T23:44:29;98800.63;;;5.82;81.81
75409;BME280;63979;55.644;37.734;2024-03-23T23:49:30;98806.34;;;5.89;81.33
75409;BME280;63979;55.644;37.734;2024-03-23T23:54:31;98813.13;;;5.80;81.69
75409;BME280;63979;55.644;37.734;2024-03-23T23:59:32;98809.47;;;5.69;82.94
